createdAt,value
2022-11-27T00:01:28.202Z,5.00
2022-11-27T00:03:57.470Z,4.20
2022-11-27T00:06:27.376Z,4.47
2022-11-27T00:08:58.804Z,4.37
2022-11-27T00:11:29.073Z,4.33
2022-11-27T00:13:58.011Z,4.43
2022-11-27T00:16:27.810Z,4.17
2022-11-27T00:18:56.307Z,4.77
2022-11-27T00:21:27.934Z,4.70
2022-11-27T00:23:59.228Z,3.40
2022-11-27T00:26:33.038Z,3.60
2022-11-27T00:29:03.465Z,3.17
2022-11-27T00:31:34.213Z,3.97
2022-11-27T00:34:04.689Z,4.07
2022-11-27T00:36:35.546Z,4.10
2022-11-27T00:39:06.016Z,4.23
2022-11-27T00:41:34.940Z,4.20
2022-11-27T00:44:03.308Z,3.90
2022-11-27T00:46:33.876Z,4.37
2022-11-27T00:49:04.731Z,4.17
2022-11-27T00:51:33.243Z,4.57
2022-11-27T00:54:02.069Z,5.27
2022-11-27T00:56:34.226Z,5.10
2022-11-27T00:59:02.808Z,4.93
2022-11-27T01:01:33.355Z,4.33
2022-11-27T01:04:03.461Z,3.60
2022-11-27T01:06:32.378Z,3.97
2022-11-27T01:09:01.641Z,3.97
2022-11-27T01:11:32.880Z,4.50
2022-11-27T01:14:03.382Z,4.20
2022-11-27T01:16:33.462Z,3.10
2022-11-27T01:19:03.589Z,4.30
2022-11-27T01:21:34.271Z,4.00
2022-11-27T01:24:05.717Z,4.57
2022-11-27T01:26:35.639Z,3.60
2022-11-27T01:29:04.126Z,3.97
2022-11-27T01:31:35.337Z,4.47
2022-11-27T01:34:06.366Z,4.40
2022-11-27T01:36:36.385Z,4.10
2022-11-27T01:39:05.474Z,3.90
2022-11-27T01:41:37.331Z,3.90
2022-11-27T01:44:47.835Z,4.27
2022-11-27T01:47:23.076Z,4.07
2022-11-27T01:49:54.688Z,4.23
2022-11-27T01:52:28.646Z,4.33
2022-11-27T01:55:00.869Z,4.73
2022-11-27T01:57:35.925Z,5.00
2022-11-27T02:00:06.781Z,4.17
2022-11-27T02:02:41.208Z,3.83
2022-11-27T02:05:11.311Z,3.90
2022-11-27T02:07:39.829Z,3.80
2022-11-27T02:10:08.988Z,4.53
2022-11-27T02:12:48.285Z,4.50
2022-11-27T02:15:24.329Z,4.87
2022-11-27T02:18:02.719Z,3.87
2022-11-27T02:20:41.461Z,4.43
2022-11-27T02:23:30.425Z,3.93
2022-11-27T02:26:18.985Z,3.57
2022-11-27T02:28:59.201Z,3.60
2022-11-27T02:31:38.290Z,4.40
2022-11-27T02:34:16.880Z,4.23
2022-11-27T02:36:50.626Z,3.77
2022-11-27T02:39:23.959Z,3.50
2022-11-27T02:41:58.572Z,3.63
2022-11-27T02:44:33.719Z,3.83
2022-11-27T02:47:03.877Z,4.00
2022-11-27T02:49:33.939Z,4.10
2022-11-27T02:52:03.434Z,3.73
2022-11-27T02:54:33.180Z,4.53
2022-11-27T02:57:04.446Z,4.60
2022-11-27T02:59:35.750Z,4.87
2022-11-27T03:02:07.920Z,4.33
2022-11-27T03:04:42.185Z,4.27
2022-11-27T03:07:17.102Z,3.60
2022-11-27T03:09:49.394Z,3.70
2022-11-27T03:12:19.441Z,3.67
2022-11-27T03:14:49.815Z,3.67
2022-11-27T03:17:30.354Z,4.67
2022-11-27T03:20:03.351Z,3.23
2022-11-27T03:22:32.339Z,4.10
2022-11-27T03:25:01.028Z,4.37
2022-11-27T03:27:34.993Z,4.10
2022-11-27T03:30:09.751Z,5.00
2022-11-27T03:32:38.435Z,4.20
2022-11-27T03:35:10.814Z,3.77
2022-11-27T03:37:39.360Z,4.43
2022-11-27T03:40:10.074Z,3.87
2022-11-27T03:42:51.193Z,4.07
2022-11-27T03:45:30.859Z,3.90
2022-11-27T03:48:18.234Z,4.17
2022-11-27T03:51:00.777Z,3.83
2022-11-27T03:53:35.939Z,4.20
2022-11-27T03:56:10.608Z,3.80
2022-11-27T03:58:42.432Z,3.67
2022-11-27T04:01:14.270Z,4.17
2022-11-27T04:03:42.660Z,3.60
2022-11-27T04:06:11.711Z,3.90
2022-11-27T04:08:40.769Z,4.17
2022-11-27T04:11:09.514Z,3.93
2022-11-27T04:13:38.051Z,3.90
2022-11-27T04:16:07.619Z,4.37
2022-11-27T04:18:37.443Z,3.47
2022-11-27T04:21:06.197Z,3.40
2022-11-27T04:23:34.570Z,3.60
2022-11-27T04:26:03.194Z,2.83
2022-11-27T04:28:31.831Z,3.50
2022-11-27T04:31:00.498Z,3.67
2022-11-27T04:33:29.125Z,3.17
2022-11-27T04:35:58.948Z,2.53
2022-11-27T04:38:27.407Z,3.90
2022-11-27T04:40:56.017Z,3.33
2022-11-27T04:43:24.478Z,2.70
2022-11-27T04:45:52.854Z,3.57
2022-11-27T04:48:21.329Z,3.30
2022-11-27T04:50:49.789Z,3.20
2022-11-27T04:53:19.694Z,3.40
2022-11-27T04:55:48.111Z,3.60
2022-11-27T04:58:16.538Z,3.03
2022-11-27T05:00:45.017Z,3.40
2022-11-27T05:03:13.471Z,4.20
2022-11-27T05:05:41.910Z,3.10
2022-11-27T05:08:10.307Z,2.90
2022-11-27T05:10:40.112Z,2.83
2022-11-27T05:13:08.506Z,3.73
2022-11-27T05:15:36.997Z,3.13
2022-11-27T05:18:05.510Z,2.77
2022-11-27T05:20:33.943Z,3.00
2022-11-27T05:23:02.311Z,3.40
2022-11-27T05:25:30.861Z,3.77
2022-11-27T05:28:00.670Z,3.03
2022-11-27T05:30:29.087Z,2.53
2022-11-27T05:32:57.491Z,3.53
2022-11-27T05:35:25.906Z,2.83
2022-11-27T05:37:54.298Z,2.80
2022-11-27T05:40:22.778Z,3.17
2022-11-27T05:42:51.194Z,2.57
2022-11-27T05:45:20.984Z,2.57
2022-11-27T05:47:49.517Z,2.70
2022-11-27T05:50:18.139Z,2.20
2022-11-27T05:52:46.561Z,2.93
2022-11-27T05:55:15.183Z,2.50
2022-11-27T05:57:43.806Z,2.37
2022-11-27T06:00:14.144Z,3.47
2022-11-27T06:02:44.061Z,2.10
2022-11-27T06:05:12.551Z,3.07
2022-11-27T06:07:40.994Z,2.73
2022-11-27T06:10:09.978Z,3.10
2022-11-27T06:12:38.468Z,3.00
2022-11-27T06:15:07.590Z,3.50
2022-11-27T06:17:36.082Z,2.87
2022-11-27T06:20:07.057Z,2.37
2022-11-27T06:22:35.441Z,2.63
2022-11-27T06:25:03.900Z,2.50
2022-11-27T06:27:33.958Z,2.97
2022-11-27T06:30:02.905Z,2.47
2022-11-27T06:32:31.308Z,2.90
2022-11-27T06:34:59.755Z,3.17
2022-11-27T06:37:29.639Z,3.00
2022-11-27T06:39:58.103Z,2.50
2022-11-27T06:42:29.399Z,2.57
2022-11-27T06:44:57.835Z,2.67
2022-11-27T06:47:26.225Z,2.40
2022-11-27T06:49:54.687Z,2.60
2022-11-27T06:52:23.108Z,2.00
2022-11-27T06:54:52.879Z,2.60
2022-11-27T06:57:21.281Z,2.40
2022-11-27T06:59:49.676Z,2.57
2022-11-27T07:02:18.104Z,2.93
2022-11-27T07:04:46.755Z,2.37
2022-11-27T07:07:15.813Z,2.43
2022-11-27T07:09:44.380Z,3.50
2022-11-27T07:12:14.161Z,2.40
2022-11-27T07:14:43.420Z,2.83
2022-11-27T07:17:11.860Z,2.67
2022-11-27T07:19:40.418Z,2.53
2022-11-27T07:22:08.847Z,3.00
2022-11-27T07:24:37.342Z,3.17
2022-11-27T07:27:05.777Z,2.20
2022-11-27T07:29:35.571Z,2.67
2022-11-27T07:32:04.134Z,2.50
2022-11-27T07:34:32.641Z,3.67
2022-11-27T07:37:01.121Z,3.80
2022-11-27T07:39:54.423Z,2.67
2022-11-27T07:45:09.120Z,3.40
2022-11-27T07:47:37.815Z,2.83
2022-11-27T07:50:08.308Z,3.90
2022-11-27T07:52:41.416Z,2.97
2022-11-27T07:55:11.480Z,3.30
2022-11-27T07:57:40.118Z,3.73
2022-11-27T08:00:11.186Z,3.30
2022-11-27T08:02:39.578Z,3.53
2022-11-27T08:05:12.816Z,3.40
2022-11-27T08:07:41.911Z,3.20
2022-11-27T08:10:10.757Z,3.57
2022-11-27T08:12:39.218Z,2.77
2022-11-27T08:15:11.051Z,3.47
2022-11-27T08:17:40.275Z,3.00
2022-11-27T08:20:09.346Z,4.10
2022-11-27T08:22:38.490Z,4.27
2022-11-27T08:25:07.830Z,3.07
2022-11-27T08:27:36.374Z,4.13
2022-11-27T08:30:06.091Z,3.27
2022-11-27T08:32:35.866Z,3.70
2022-11-27T08:35:04.394Z,3.77
2022-11-27T08:37:33.908Z,4.03
2022-11-27T08:40:02.454Z,4.10
2022-11-27T08:42:31.482Z,3.90
2022-11-27T08:45:00.076Z,3.20
2022-11-27T08:47:28.586Z,3.47
2022-11-27T08:49:58.320Z,3.73
2022-11-27T08:52:27.221Z,3.60
2022-11-27T08:54:57.836Z,3.43
2022-11-27T08:57:26.895Z,3.77
2022-11-27T08:59:55.338Z,4.27
2022-11-27T09:02:23.795Z,3.23
2022-11-27T09:04:52.498Z,3.53
2022-11-27T09:07:22.355Z,3.93
2022-11-27T09:09:50.815Z,3.90
2022-11-27T09:12:19.254Z,3.20
2022-11-27T09:14:47.650Z,4.00
2022-11-27T09:17:17.091Z,3.37
2022-11-27T09:19:45.485Z,4.63
2022-11-27T09:22:13.861Z,3.30
2022-11-27T09:24:43.826Z,4.50
2022-11-27T09:27:12.339Z,3.83
2022-11-27T09:29:40.754Z,4.43
2022-11-27T09:32:09.196Z,4.77
2022-11-27T09:34:37.918Z,4.20
2022-11-27T09:37:06.426Z,4.50
2022-11-27T09:39:35.009Z,4.17
2022-11-27T09:42:08.615Z,4.60
2022-11-27T09:44:40.749Z,4.67
2022-11-27T09:47:17.478Z,4.60
2022-11-27T09:49:51.005Z,4.50
2022-11-27T09:52:24.697Z,4.23
2022-11-27T09:54:57.798Z,4.27
2022-11-27T09:57:32.731Z,3.90
2022-11-27T10:00:06.973Z,5.13
2022-11-27T10:02:36.833Z,4.33
2022-11-27T10:05:14.397Z,4.13
2022-11-27T10:08:06.945Z,4.63
2022-11-27T10:10:42.322Z,4.20
2022-11-27T10:13:25.281Z,4.77
2022-11-27T10:15:57.766Z,4.73
2022-11-27T10:18:32.753Z,4.13
2022-11-27T10:21:08.403Z,4.17
2022-11-27T10:23:47.401Z,5.57
2022-11-27T10:26:20.098Z,5.10
2022-11-27T10:29:00.433Z,4.10
2022-11-27T10:31:36.890Z,4.93
2022-11-27T10:34:16.465Z,5.20
2022-11-27T10:36:48.838Z,4.97
2022-11-27T10:39:27.058Z,4.93
2022-11-27T10:42:02.594Z,5.53
2022-11-27T10:44:36.262Z,5.70
2022-11-27T10:47:08.486Z,4.90
2022-11-27T10:49:40.037Z,5.77
2022-11-27T10:52:13.684Z,4.90
2022-11-27T10:54:43.831Z,5.40
2022-11-27T10:57:32.426Z,5.30
2022-11-27T11:00:11.311Z,5.30
2022-11-27T11:02:40.905Z,5.17
2022-11-27T11:05:51.033Z,5.43
2022-11-27T11:08:17.568Z,5.30
2022-11-27T11:10:52.941Z,5.90
2022-11-27T11:13:23.955Z,6.70
2022-11-27T11:16:00.054Z,7.97
2022-11-27T11:18:30.726Z,5.07
2022-11-27T11:21:02.197Z,4.93
2022-11-27T11:23:33.683Z,5.20
2022-11-27T11:26:06.227Z,4.43
2022-11-27T11:28:39.693Z,5.03
2022-11-27T11:31:19.160Z,4.63
2022-11-27T11:33:56.375Z,4.93
2022-11-27T11:36:25.058Z,4.73
2022-11-27T11:38:54.180Z,4.47
2022-11-27T11:41:24.122Z,5.37
2022-11-27T11:44:01.250Z,5.13
2022-11-27T11:46:33.672Z,4.90
2022-11-27T11:49:06.552Z,4.70
2022-11-27T11:52:05.281Z,4.00
2022-11-27T11:54:51.184Z,4.57
2022-11-27T11:57:43.568Z,4.70
2022-11-27T12:00:15.528Z,4.70
2022-11-27T12:03:02.372Z,4.27
2022-11-27T12:05:42.274Z,4.43
2022-11-27T12:08:34.441Z,4.60
2022-11-27T12:11:11.778Z,4.10
2022-11-27T12:14:06.762Z,4.20
2022-11-27T12:16:45.877Z,4.13
2022-11-27T12:19:39.894Z,4.80
2022-11-27T12:22:18.965Z,4.37
2022-11-27T12:24:59.589Z,4.03
2022-11-27T12:27:39.047Z,4.23
2022-11-27T12:30:15.505Z,4.57
2022-11-27T12:33:00.554Z,4.50
2022-11-27T12:35:35.094Z,4.40
2022-11-27T12:38:22.371Z,4.60
2022-11-27T12:41:16.866Z,4.17
2022-11-27T12:43:48.526Z,4.27
2022-11-27T12:46:23.516Z,4.00
2022-11-27T12:48:56.631Z,5.00
2022-11-27T12:51:30.261Z,4.33
2022-11-27T12:54:02.166Z,4.30
2022-11-27T12:56:34.763Z,4.83
2022-11-27T12:59:08.138Z,5.37
2022-11-27T13:01:42.477Z,4.47
2022-11-27T13:04:19.329Z,4.53
2022-11-27T13:06:56.094Z,4.90
2022-11-27T13:09:30.944Z,5.43
2022-11-27T13:12:00.926Z,4.47
2022-11-27T13:14:30.487Z,5.23
2022-11-27T13:17:03.685Z,5.27
2022-11-27T13:19:35.951Z,4.13
2022-11-27T13:22:10.536Z,5.53
2022-11-27T13:24:39.451Z,3.93
2022-11-27T13:27:11.192Z,5.17
2022-11-27T13:29:44.788Z,5.77
2022-11-27T13:32:20.862Z,4.33
2022-11-27T13:34:50.235Z,4.40
2022-11-27T13:37:34.186Z,4.40
2022-11-27T13:40:07.329Z,5.27
2022-11-27T13:42:37.526Z,4.93
2022-11-27T13:45:11.408Z,4.60
2022-11-27T13:47:44.304Z,4.73
2022-11-27T13:50:14.848Z,5.00
2022-11-27T13:52:57.226Z,5.00
2022-11-27T13:55:28.180Z,4.60
2022-11-27T13:57:58.403Z,5.23
2022-11-27T14:00:36.931Z,4.83
2022-11-27T14:03:06.596Z,4.17
2022-11-27T14:05:39.854Z,5.00
2022-11-27T14:08:21.677Z,5.60
2022-11-27T14:10:53.761Z,5.73
2022-11-27T14:13:27.609Z,5.53
2022-11-27T14:16:02.611Z,5.30
2022-11-27T14:18:31.936Z,6.60
2022-11-27T14:21:03.769Z,6.37
2022-11-27T14:23:36.183Z,5.43
2022-11-27T14:26:20.420Z,5.40
2022-11-27T14:28:52.796Z,5.97
2022-11-27T14:31:28.743Z,5.50
2022-11-27T14:36:46.865Z,6.03
2022-11-27T14:39:24.514Z,5.57
2022-11-27T14:42:01.074Z,5.77
2022-11-27T14:44:30.169Z,6.00
2022-11-27T14:47:02.011Z,5.20
2022-11-27T14:49:32.695Z,5.27
2022-11-27T14:52:05.550Z,6.47
2022-11-27T14:54:38.735Z,5.20
2022-11-27T14:57:08.366Z,6.10
2022-11-27T14:59:36.822Z,5.80
2022-11-27T15:02:18.182Z,6.40
2022-11-27T15:04:47.698Z,6.77
2022-11-27T15:07:18.026Z,6.57
2022-11-27T15:09:51.043Z,5.93
2022-11-27T15:12:22.012Z,5.20
2022-11-27T15:14:57.898Z,6.10
2022-11-27T15:17:29.320Z,5.77
2022-11-27T15:19:59.165Z,5.80
2022-11-27T15:22:27.831Z,5.53
2022-11-27T15:25:02.187Z,4.70
2022-11-27T15:27:33.498Z,5.47
2022-11-27T15:30:12.017Z,5.03
2022-11-27T15:32:51.071Z,5.27
2022-11-27T15:35:26.037Z,5.23
2022-11-27T15:37:57.103Z,5.57
2022-11-27T15:40:31.926Z,5.23
2022-11-27T15:43:00.457Z,5.50
2022-11-27T15:45:31.612Z,4.47
2022-11-27T15:48:01.379Z,5.77
2022-11-27T15:50:30.850Z,4.40
2022-11-27T15:53:00.880Z,5.20
2022-11-27T15:55:30.763Z,4.70
2022-11-27T15:57:59.163Z,4.83
2022-11-27T16:00:27.833Z,4.30
2022-11-27T16:02:56.655Z,5.33
2022-11-27T16:05:25.111Z,4.37
2022-11-27T16:07:55.323Z,4.87
2022-11-27T16:10:24.205Z,4.60
2022-11-27T16:12:55.253Z,4.47
2022-11-27T16:15:26.680Z,4.53
2022-11-27T16:17:58.597Z,4.60
2022-11-27T16:20:27.151Z,4.07
2022-11-27T16:22:55.542Z,4.27
2022-11-27T16:25:25.190Z,4.07
2022-11-27T16:28:00.970Z,4.13
2022-11-27T16:30:31.108Z,4.87
2022-11-27T16:32:59.591Z,4.23
2022-11-27T16:35:28.181Z,4.63
2022-11-27T16:37:56.947Z,4.23
2022-11-27T16:40:25.497Z,4.07
2022-11-27T16:42:55.616Z,4.40
2022-11-27T16:45:24.373Z,4.60
2022-11-27T16:47:52.959Z,4.37
2022-11-27T16:50:21.418Z,4.80
2022-11-27T16:52:54.444Z,3.77
2022-11-27T16:55:26.402Z,4.00
2022-11-27T16:57:56.980Z,3.90
2022-11-27T17:00:26.105Z,3.70
2022-11-27T17:02:54.919Z,4.60
2022-11-27T17:05:23.442Z,4.20
2022-11-27T17:07:51.977Z,3.93
2022-11-27T17:10:20.584Z,4.23
2022-11-27T17:12:49.059Z,4.27
2022-11-27T17:15:18.998Z,4.10
2022-11-27T17:17:47.424Z,5.20
2022-11-27T17:20:15.952Z,4.23
2022-11-27T17:22:45.284Z,5.73
2022-11-27T17:25:14.344Z,5.53
2022-11-27T17:27:43.726Z,4.87
2022-11-27T17:30:12.782Z,4.60
2022-11-27T17:32:42.997Z,6.43
2022-11-27T17:35:11.614Z,6.77
2022-11-27T17:37:40.118Z,6.30
2022-11-27T17:40:09.557Z,4.90
2022-11-27T17:42:38.115Z,5.73
2022-11-27T17:45:07.487Z,6.03
2022-11-27T17:47:36.021Z,5.10
2022-11-27T17:50:07.315Z,4.77
2022-11-27T17:52:35.864Z,4.30
2022-11-27T17:55:05.654Z,5.37
2022-11-27T17:57:35.270Z,5.60
2022-11-27T18:00:06.847Z,5.90
2022-11-27T18:02:42.595Z,5.33
2022-11-27T18:05:12.628Z,5.10
2022-11-27T18:07:41.240Z,6.43
2022-11-27T18:10:10.728Z,5.23
2022-11-27T18:12:39.321Z,5.17
2022-11-27T18:15:09.567Z,4.77
2022-11-27T18:17:39.001Z,5.13
2022-11-27T18:20:08.828Z,5.10
2022-11-27T18:22:38.992Z,4.83
2022-11-27T18:25:08.238Z,4.47
2022-11-27T18:27:36.986Z,4.97
2022-11-27T18:30:07.049Z,5.40
2022-11-27T18:32:37.846Z,4.67
2022-11-27T18:35:07.657Z,6.17
2022-11-27T18:37:38.790Z,5.67
2022-11-27T18:40:09.231Z,5.80
2022-11-27T18:42:38.092Z,6.17
2022-11-27T18:45:25.333Z,5.53
2022-11-27T18:48:00.439Z,6.10
2022-11-27T18:50:30.027Z,5.87
2022-11-27T18:53:00.432Z,5.73
2022-11-27T18:55:29.604Z,5.77
2022-11-27T18:57:58.901Z,6.20
2022-11-27T19:00:30.957Z,5.87
2022-11-27T19:03:02.347Z,5.37
2022-11-27T19:05:31.469Z,5.37
2022-11-27T19:08:04.462Z,6.30
2022-11-27T19:10:34.090Z,6.40
2022-11-27T19:13:02.867Z,6.13
2022-11-27T19:15:31.754Z,6.07
2022-11-27T19:18:01.728Z,5.93
2022-11-27T19:20:30.742Z,5.27
2022-11-27T19:23:02.361Z,6.30
2022-11-27T19:25:32.936Z,4.83
2022-11-27T19:28:01.881Z,6.10
2022-11-27T19:30:34.000Z,5.43
2022-11-27T19:33:02.774Z,5.90
2022-11-27T19:35:31.785Z,5.43
2022-11-27T19:38:02.106Z,6.73
2022-11-27T19:40:32.676Z,5.77
2022-11-27T19:43:01.572Z,5.87
2022-11-27T19:45:30.170Z,6.30
2022-11-27T19:47:58.669Z,6.10
2022-11-27T19:50:27.151Z,5.47
2022-11-27T19:52:55.640Z,5.40
2022-11-27T19:55:25.431Z,6.00
2022-11-27T19:57:53.848Z,5.30
2022-11-27T20:00:22.927Z,6.00
2022-11-27T20:02:51.594Z,5.50
2022-11-27T20:05:20.183Z,5.63
2022-11-27T20:07:49.861Z,6.00
2022-11-27T20:10:18.727Z,5.60
2022-11-27T20:12:48.641Z,6.53
2022-11-27T20:15:18.906Z,5.93
2022-11-27T20:17:47.436Z,6.43
2022-11-27T20:20:16.889Z,6.30
2022-11-27T20:22:45.600Z,6.13
2022-11-27T20:25:19.841Z,6.17
2022-11-27T20:27:51.109Z,5.47
2022-11-27T20:30:20.485Z,6.47
2022-11-27T20:32:49.001Z,6.00
2022-11-27T20:35:18.116Z,4.97
2022-11-27T20:37:48.050Z,6.00
2022-11-27T20:40:16.934Z,5.83
2022-11-27T20:42:45.566Z,7.03
2022-11-27T20:45:20.159Z,6.07
2022-11-27T20:47:49.195Z,5.93
2022-11-27T20:50:17.971Z,6.43
2022-11-27T20:52:47.060Z,5.90
2022-11-27T20:55:15.531Z,5.60
2022-11-27T20:57:44.594Z,5.97
2022-11-27T21:00:15.440Z,6.47
2022-11-27T21:02:44.184Z,6.83
2022-11-27T21:05:12.907Z,5.23
2022-11-27T21:07:43.366Z,5.77
2022-11-27T21:10:17.937Z,6.80
2022-11-27T21:12:46.628Z,5.30
2022-11-27T21:15:16.402Z,5.97
2022-11-27T21:17:44.862Z,5.90
2022-11-27T21:20:14.826Z,4.97
2022-11-27T21:22:44.091Z,5.23
2022-11-27T21:25:12.607Z,5.67
2022-11-27T21:27:41.074Z,6.07
2022-11-27T21:30:10.139Z,5.83
2022-11-27T21:32:40.268Z,6.53
2022-11-27T21:35:09.850Z,5.97
2022-11-27T21:37:38.328Z,5.67
2022-11-27T21:40:08.630Z,6.03
2022-11-27T21:42:40.347Z,6.30
2022-11-27T21:45:12.782Z,6.33
2022-11-27T21:47:43.078Z,6.13
2022-11-27T21:50:13.656Z,6.73
2022-11-27T21:52:42.210Z,6.33
2022-11-27T21:55:12.336Z,6.57
2022-11-27T21:57:41.131Z,6.00
2022-11-27T22:00:10.490Z,5.77
2022-11-27T22:02:44.137Z,5.63
2022-11-27T22:05:12.815Z,5.77
2022-11-27T22:07:41.416Z,6.43
2022-11-27T22:10:11.006Z,5.53
2022-11-27T22:12:39.528Z,6.07
2022-11-27T22:15:08.908Z,5.87
2022-11-27T22:17:37.685Z,6.00
2022-11-27T22:20:08.979Z,6.97
2022-11-27T22:22:37.418Z,6.17
2022-11-27T22:25:06.626Z,6.07
2022-11-27T22:27:35.351Z,6.17
2022-11-27T22:30:04.103Z,5.30
2022-11-27T22:32:32.956Z,5.77
2022-11-27T22:35:02.127Z,6.00
2022-11-27T22:37:32.076Z,4.87
2022-11-27T22:40:00.750Z,5.77
2022-11-27T22:42:29.250Z,5.80
2022-11-27T22:44:58.019Z,5.67
2022-11-27T22:47:26.474Z,5.63
2022-11-27T22:49:54.939Z,6.30
2022-11-27T22:52:23.529Z,5.37
2022-11-27T22:54:53.351Z,5.27
2022-11-27T22:57:21.911Z,5.70
2022-11-27T22:59:50.468Z,5.83
2022-11-27T23:02:20.456Z,5.17
2022-11-27T23:04:49.614Z,5.57
2022-11-27T23:07:23.700Z,6.00
2022-11-27T23:09:55.138Z,4.60
2022-11-27T23:12:23.579Z,5.87
2022-11-27T23:14:52.046Z,5.87
2022-11-27T23:17:20.464Z,6.27
2022-11-27T23:19:48.871Z,5.50
2022-11-27T23:22:17.258Z,6.03
2022-11-27T23:24:45.706Z,6.43
2022-11-27T23:27:15.486Z,5.93
2022-11-27T23:29:43.966Z,5.97
2022-11-27T23:32:12.547Z,6.43
2022-11-27T23:34:41.303Z,6.73
2022-11-27T23:37:10.075Z,6.83
2022-11-27T23:39:38.771Z,6.77
2022-11-27T23:42:07.242Z,5.93
2022-11-27T23:44:37.277Z,6.33
2022-11-27T23:47:06.149Z,6.73
2022-11-27T23:49:34.603Z,7.43
2022-11-27T23:52:03.123Z,6.67
2022-11-27T23:54:31.568Z,6.27
2022-11-27T23:57:00.024Z,6.33
2022-11-27T23:59:28.450Z,7.10
